Aérodrome :
LOGIN :

S'inscrire | Disclaimer

   EN    FR    IT 

 










Légende :    VFR   VFR Marginal   IFR   IFR Intensif   IFR Très Intensif
Visi : 
Plafond : 
>= 8 km
>= 3000ft
5 à 8 km
1000 à 3000 ft
1500m à 5 km
500 à 1000 ft
800 à 1500m
200 à 500 ft
< 800m
< 200 ft
Symboles :   Orages  Brouillard  Fortes neiges  Fortes précipitations  Vent > 20 kt
SIGMETs :   Divers  Orages  Givrage  Turbulence  Onde Orograph.  Cendres Volcan.







- Altitude de l'aérodrome : 38 ft
- Code IATA : BOH
- Voir les cartes d'approche


EGHH - Bournemouth

DERNIER METAR :
  • 221350Z 23004KT 9999 FEW021 BKN042 05/03 Q1000 RESHRA

METARs EXPIRÉS :
  • 221320Z 25007KT 9999 6000S -SHRA SCT027 BKN035 05/03 Q1001
  • 221250Z 25007KT 9999 -SHRA SCT027 BKN039 05/02 Q1002
  • 221220Z 26005KT 9999 FEW045 06/02 Q1003
  • 221150Z 23007KT 9999 FEW045 06/02 Q1003
  • 221120Z 24006KT 9999 FEW045 05/02 Q1004

TAF TAF EGHH
Valide du 22 à 12h jusqu'au 22 à 21h UTC


221104Z 2212/2221 26008KT 9999 FEW025
TEMPO 2212/2221 6000 SHRA BKN012
PROB30
TEMPO 2212/2218 3000 SHRASN BKN008
ATIS : +44 1202 364 151
Météo : +44 1202 364 158 (TAF)
Pas de NOTAMs connus pour ce terrain.
1 SIGMET publié pour la FIR London (EGTT) :
 
Turbulence forte
EGTT SIGMET 01 VALID 221030/221430 EGRR
EGTT LONDON FIR SEV TURB FCST WI N5220 W00530 - N5429 W00530 - N5214 W00410 - N5045 W00342 - N4947 W00604 - N5143 W00639 - N5220 W00530 FL160/400 MOV E 15KT NC=



MET'MAP, la Météo Aéronautique d'un coup d'oeil ! - Copyright ORBIFLY Décembre 2007 - Disclaimer

ORBIFLY MET'MAP TEAM :

Programmation & Développement : Alexandra Zaïnal
Conception & Développement : Baudouin d'Aumeries
Co-Programmation & Développement : Marc-Olivier Méhu
Soutien technique & logistique : Manuel Goepfert

Contact : metmap@orbifly.com




SOURCES & CREDITS :

   NOAA